Time;durP1;ratioP1;P1;durP2;ratioP2;P2;SDS_P1;SDS_P2;PMS_P1;PMS_P2;Temp;Humidity;BMP_temperature;BMP_pressure;BME280_temperature;BME280_humidity;BME280_pressure;Samples;Min_cycle;Max_cycle;Signal;HPM_P1;HPM_P2
2022/05/02 00:00:47;;;;;;;52.35;32.17;;;;;;;;;;5043253;28;20048;-77
2022/05/02 00:03:14;;;;;;;54.28;33.58;;;;;;;;;;5034278;28;20045;-77
2022/05/02 00:05:40;;;;;;;49.90;29.73;;;;;;;;;;5035139;28;20049;-77
2022/05/02 00:08:08;;;;;;;51.55;31.20;;;;;;;;;;5034793;28;20049;-77
2022/05/02 00:10:35;;;;;;;53.15;32.35;;;;;;;;;;5034345;28;20058;-77
2022/05/02 00:13:01;;;;;;;48.33;30.67;;;;;;;;;;5034207;28;20042;-78
2022/05/02 00:15:31;;;;;;;51.28;30.75;;;;;;;;;;5033700;28;20055;-77
2022/05/02 00:17:58;;;;;;;49.67;30.52;;;;;;;;;;5033421;28;20061;-78
2022/05/02 00:20:26;;;;;;;55.42;32.70;;;;;;;;;;5033749;28;20077;-77
2022/05/02 00:22:53;;;;;;;52.65;30.85;;;;;;;;;;5034154;28;20104;-78
2022/05/02 00:25:20;;;;;;;58.08;32.30;;;;;;;;;;5033732;28;20057;-78
2022/05/02 00:27:48;;;;;;;51.83;31.42;;;;;;;;;;5033978;28;20049;-78
2022/05/02 00:30:15;;;;;;;54.38;30.92;;;;;;;;;;5032972;28;20080;-77
2022/05/02 00:32:44;;;;;;;51.42;30.45;;;;;;;;;;5033724;28;20547;-77
2022/05/02 00:35:12;;;;;;;55.83;33.63;;;;;;;;;;5033064;28;20041;-77
2022/05/02 00:37:39;;;;;;;51.35;32.33;;;;;;;;;;5033923;28;20049;-77
2022/05/02 00:40:08;;;;;;;48.58;30.67;;;;;;;;;;5033973;28;20079;-78
2022/05/02 00:42:35;;;;;;;50.97;31.52;;;;;;;;;;5033955;28;20053;-78
2022/05/02 00:45:01;;;;;;;51.20;31.17;;;;;;;;;;5033957;28;20099;-77
2022/05/02 00:47:28;;;;;;;57.47;34.42;;;;;;;;;;5015695;28;20045;-77
2022/05/02 00:49:56;;;;;;;50.92;32.42;;;;;;;;;;5014115;28;20045;-78
2022/05/02 00:52:23;;;;;;;50.92;31.73;;;;;;;;;;5015332;28;20042;-78
2022/05/02 00:54:50;;;;;;;50.45;31.08;;;;;;;;;;5016041;28;20553;-78
2022/05/02 00:57:18;;;;;;;48.38;29.77;;;;;;;;;;5017744;28;20089;-78
2022/05/02 00:59:46;;;;;;;46.92;29.38;;;;;;;;;;5019316;28;20080;-78
2022/05/02 01:02:15;;;;;;;45.70;29.08;;;;;;;;;;5019987;28;20049;-78
2022/05/02 01:04:43;;;;;;;51.63;31.23;;;;;;;;;;5024025;28;20204;-79
2022/05/02 01:07:12;;;;;;;47.05;28.67;;;;;;;;;;5023180;28;20133;-78
2022/05/02 01:09:41;;;;;;;47.85;28.70;;;;;;;;;;5022834;28;20097;-78
2022/05/02 01:12:14;;;;;;;44.70;28.35;;;;;;;;;;5023201;28;20076;-79
2022/05/02 01:14:41;;;;;;;53.88;29.73;;;;;;;;;;5025885;28;20045;-79
2022/05/02 01:17:09;;;;;;;50.78;30.42;;;;;;;;;;5032338;28;20046;-79
2022/05/02 01:19:36;;;;;;;49.05;29.55;;;;;;;;;;5035961;28;20050;-79
2022/05/02 01:22:06;;;;;;;47.72;29.38;;;;;;;;;;5037263;28;20034;-79
2022/05/02 01:24:35;;;;;;;47.58;29.33;;;;;;;;;;5026356;28;20053;-79
2022/05/02 01:27:02;;;;;;;45.45;27.92;;;;;;;;;;5024869;28;20570;-79
2022/05/02 01:29:31;;;;;;;48.65;29.98;;;;;;;;;;5022111;28;20046;-79
2022/05/02 01:31:58;;;;;;;45.30;28.52;;;;;;;;;;5022097;28;20046;-77
2022/05/02 01:34:25;;;;;;;46.38;29.77;;;;;;;;;;5020494;28;20497;-78
2022/05/02 01:36:51;;;;;;;45.58;28.98;;;;;;;;;;5019277;28;20402;-78
2022/05/02 01:39:20;;;;;;;49.45;29.38;;;;;;;;;;5021176;28;20045;-78
2022/05/02 01:41:46;;;;;;;46.80;28.65;;;;;;;;;;5020889;28;20100;-78
2022/05/02 01:44:13;;;;;;;47.78;29.23;;;;;;;;;;5020698;28;20096;-78
2022/05/02 01:46:40;;;;;;;46.95;27.95;;;;;;;;;;5031239;28;20778;-77
2022/05/02 01:49:07;;;;;;;46.13;28.33;;;;;;;;;;5040543;28;20448;-78
2022/05/02 01:51:34;;;;;;;47.80;27.38;;;;;;;;;;5039836;28;20057;-78
2022/05/02 01:54:00;;;;;;;45.17;28.02;;;;;;;;;;5039311;28;20049;-77
2022/05/02 01:56:29;;;;;;;46.53;27.10;;;;;;;;;;5037592;28;20045;-79
2022/05/02 01:58:56;;;;;;;41.47;26.77;;;;;;;;;;5038488;28;20570;-78
2022/05/02 02:01:22;;;;;;;45.65;28.23;;;;;;;;;;5039224;28;20050;-77
2022/05/02 02:03:50;;;;;;;43.83;27.08;;;;;;;;;;5039460;28;20049;-79
2022/05/02 02:06:15;;;;;;;43.47;28.25;;;;;;;;;;5038820;28;20046;-79
2022/05/02 02:08:43;;;;;;;45.05;26.40;;;;;;;;;;5039617;28;20046;-79
2022/05/02 02:11:11;;;;;;;43.85;26.92;;;;;;;;;;5039465;28;20053;-78
2022/05/02 02:13:39;;;;;;;45.13;27.85;;;;;;;;;;5039506;28;20422;-79
2022/05/02 02:16:09;;;;;;;44.53;25.67;;;;;;;;;;5039808;28;20080;-78
2022/05/02 02:18:38;;;;;;;41.47;26.45;;;;;;;;;;5039580;28;20049;-79
2022/05/02 02:21:06;;;;;;;43.53;26.15;;;;;;;;;;5039368;28;20275;-80
2022/05/02 02:23:32;;;;;;;45.40;26.42;;;;;;;;;;5040209;28;20046;-79
2022/05/02 02:25:59;;;;;;;43.08;26.65;;;;;;;;;;5039802;28;20132;-80
2022/05/02 02:28:26;;;;;;;45.83;27.40;;;;;;;;;;5039665;28;20095;-79
2022/05/02 02:30:55;;;;;;;50.35;30.00;;;;;;;;;;5039949;28;20054;-80
2022/05/02 02:33:22;;;;;;;51.60;30.17;;;;;;;;;;5039588;28;20058;-79
2022/05/02 02:35:49;;;;;;;42.55;27.45;;;;;;;;;;5042527;28;20092;-79
2022/05/02 02:38:16;;;;;;;49.78;27.13;;;;;;;;;;5043219;28;20113;-77
2022/05/02 02:40:43;;;;;;;44.33;26.38;;;;;;;;;;5046425;28;20111;-79
2022/05/02 02:43:10;;;;;;;40.65;25.38;;;;;;;;;;5038667;28;20091;-78
2022/05/02 02:45:37;;;;;;;41.55;26.60;;;;;;;;;;5037412;28;20578;-78
2022/05/02 02:48:07;;;;;;;42.17;25.25;;;;;;;;;;5043965;28;20045;-78
2022/05/02 02:50:34;;;;;;;45.20;25.42;;;;;;;;;;5044582;28;20080;-78
2022/05/02 02:53:00;;;;;;;46.08;26.27;;;;;;;;;;5045832;28;20079;-76
2022/05/02 02:55:27;;;;;;;42.88;25.45;;;;;;;;;;5041023;28;20581;-79
2022/05/02 02:57:54;;;;;;;45.42;26.27;;;;;;;;;;5038863;28;20096;-79
2022/05/02 03:00:21;;;;;;;40.78;24.48;;;;;;;;;;5047178;28;20057;-76
2022/05/02 03:02:49;;;;;;;44.70;27.60;;;;;;;;;;5042116;28;20497;-76
2022/05/02 03:08:09;;;;;;;44.38;26.65;;;;;;;;;;5023737;28;20143;-77
2022/05/02 03:10:36;;;;;;;41.08;26.05;;;;;;;;;;5034657;28;20049;-77
2022/05/02 03:13:04;;;;;;;46.35;27.15;;;;;;;;;;5034103;28;20053;-77
2022/05/02 03:15:32;;;;;;;45.20;27.33;;;;;;;;;;5034107;28;20492;-78
2022/05/02 03:17:58;;;;;;;45.85;27.30;;;;;;;;;;5046674;22;20057;-80
2022/05/02 03:20:27;;;;;;;43.53;26.73;;;;;;;;;;5035615;28;20045;-79
2022/05/02 03:22:53;;;;;;;48.58;28.48;;;;;;;;;;5035400;28;20565;-79
2022/05/02 03:25:20;;;;;;;47.45;29.35;;;;;;;;;;5035029;28;20084;-80
2022/05/02 03:27:47;;;;;;;47.17;28.42;;;;;;;;;;5044247;28;20044;-80
2022/05/02 03:30:14;;;;;;;47.38;28.90;;;;;;;;;;5057090;28;20457;-79
2022/05/02 03:32:41;;;;;;;46.88;27.63;;;;;;;;;;5057793;28;20091;-79
2022/05/02 03:35:09;;;;;;;54.85;29.77;;;;;;;;;;5056269;28;20048;-82
2022/05/02 03:37:37;;;;;;;47.70;28.13;;;;;;;;;;5055862;28;20060;-79
2022/05/02 03:40:05;;;;;;;49.00;27.38;;;;;;;;;;5055427;28;20045;-79
2022/05/02 03:42:31;;;;;;;47.35;27.67;;;;;;;;;;5054966;28;20057;-82
2022/05/02 03:44:58;;;;;;;47.88;28.23;;;;;;;;;;5055070;28;20533;-81
2022/05/02 03:47:25;;;;;;;47.00;28.70;;;;;;;;;;5055287;28;20094;-80
2022/05/02 03:49:52;;;;;;;46.45;27.65;;;;;;;;;;5055649;28;20099;-80
2022/05/02 03:52:19;;;;;;;46.72;27.17;;;;;;;;;;5055542;28;20056;-81
2022/05/02 03:54:47;;;;;;;45.42;27.88;;;;;;;;;;5053900;28;20049;-81
2022/05/02 03:57:14;;;;;;;44.55;26.55;;;;;;;;;;5054548;28;20072;-81
2022/05/02 03:59:41;;;;;;;45.05;27.67;;;;;;;;;;5054260;28;20049;-79
2022/05/02 04:02:07;;;;;;;47.13;28.38;;;;;;;;;;5054648;28;20044;-80
2022/05/02 04:04:34;;;;;;;47.95;27.60;;;;;;;;;;5053997;28;20045;-79
2022/05/02 04:07:01;;;;;;;48.92;28.67;;;;;;;;;;5054384;28;20045;-79
2022/05/02 04:09:28;;;;;;;49.65;29.23;;;;;;;;;;5054230;28;20045;-79
2022/05/02 04:11:56;;;;;;;46.78;30.17;;;;;;;;;;5054418;28;20045;-78
2022/05/02 04:14:23;;;;;;;47.42;27.98;;;;;;;;;;5054290;28;20095;-79
2022/05/02 04:16:50;;;;;;;46.75;27.65;;;;;;;;;;5056040;28;20151;-80
2022/05/02 04:19:17;;;;;;;50.30;27.45;;;;;;;;;;5054206;28;20133;-79
2022/05/02 04:21:44;;;;;;;48.25;26.95;;;;;;;;;;5054367;28;20044;-80
2022/05/02 04:24:11;;;;;;;45.55;28.30;;;;;;;;;;5054206;28;20045;-80
2022/05/02 04:26:38;;;;;;;45.85;26.40;;;;;;;;;;5053120;28;20462;-79
2022/05/02 04:29:06;;;;;;;44.05;27.05;;;;;;;;;;5053805;28;20042;-80
2022/05/02 04:31:32;;;;;;;45.08;26.92;;;;;;;;;;5053678;28;20495;-79
2022/05/02 04:33:59;;;;;;;48.80;27.75;;;;;;;;;;5053882;28;20049;-80
2022/05/02 04:36:26;;;;;;;40.92;26.15;;;;;;;;;;5053959;28;20045;-79
2022/05/02 04:38:53;;;;;;;47.28;27.80;;;;;;;;;;5053967;28;20053;-79
2022/05/02 04:41:19;;;;;;;46.78;28.00;;;;;;;;;;5054182;28;20053;-79
2022/05/02 04:43:51;;;;;;;46.72;27.98;;;;;;;;;;5053905;28;20457;-79
2022/05/02 04:46:19;;;;;;;45.90;26.27;;;;;;;;;;5045523;28;20103;-79
2022/05/02 04:48:46;;;;;;;46.47;27.27;;;;;;;;;;5034381;28;20065;-80
2022/05/02 04:51:13;;;;;;;51.83;28.60;;;;;;;;;;5033711;28;20060;-80
2022/05/02 04:53:40;;;;;;;45.58;27.52;;;;;;;;;;5033374;28;20496;-80
2022/05/02 04:56:07;;;;;;;46.25;28.02;;;;;;;;;;5034078;28;20103;-80
2022/05/02 04:58:33;;;;;;;43.17;25.33;;;;;;;;;;5034299;28;20049;-80
2022/05/02 05:01:00;;;;;;;48.03;27.25;;;;;;;;;;5034317;28;20065;-80
2022/05/02 05:03:28;;;;;;;48.70;26.33;;;;;;;;;;5033938;28;20103;-79
2022/05/02 05:05:55;;;;;;;48.67;27.55;;;;;;;;;;5033719;28;20072;-79
2022/05/02 05:08:22;;;;;;;48.97;26.52;;;;;;;;;;5033491;28;20049;-78
2022/05/02 05:11:10;;;;;;;48.08;27.17;;;;;;;;;;5034218;28;20458;-80
2022/05/02 05:13:43;;;;;;;48.17;27.10;;;;;;;;;;5034365;28;20045;-79
2022/05/02 05:16:32;;;;;;;43.08;26.48;;;;;;;;;;5033702;28;20466;-79
2022/05/02 05:19:21;;;;;;;48.30;26.38;;;;;;;;;;5033974;28;20053;-80
2022/05/02 05:22:03;;;;;;;47.38;26.48;;;;;;;;;;5034010;28;20041;-80
2022/05/02 05:25:06;;;;;;;46.08;26.83;;;;;;;;;;5033924;28;20480;-80
2022/05/02 05:27:53;;;;;;;44.97;25.92;;;;;;;;;;5034472;28;20062;-80
2022/05/02 05:30:21;;;;;;;52.08;26.33;;;;;;;;;;5034693;28;20041;-80
2022/05/02 05:32:56;;;;;;;45.88;24.27;;;;;;;;;;5034724;28;20049;-80
2022/05/02 05:35:32;;;;;;;46.03;24.90;;;;;;;;;;5037283;28;20041;-79
2022/05/02 05:38:02;;;;;;;43.33;25.75;;;;;;;;;;5037366;28;20065;-79
2022/05/02 05:40:31;;;;;;;41.60;23.58;;;;;;;;;;5033959;28;20045;-79
2022/05/02 05:43:04;;;;;;;42.53;24.15;;;;;;;;;;5036604;28;20042;-79
2022/05/02 05:45:43;;;;;;;41.65;22.33;;;;;;;;;;5036030;28;20686;-80
2022/05/02 05:48:19;;;;;;;35.53;21.92;;;;;;;;;;5054781;28;20495;-79
2022/05/02 05:50:54;;;;;;;34.00;20.67;;;;;;;;;;5065148;28;20061;-79
2022/05/02 05:53:35;;;;;;;35.67;20.92;;;;;;;;;;5065197;28;20045;-79
2022/05/02 05:56:24;;;;;;;38.30;21.27;;;;;;;;;;5057801;28;20071;-78
2022/05/02 05:59:03;;;;;;;42.60;23.40;;;;;;;;;;5057858;28;20083;-80
2022/05/02 06:01:46;;;;;;;39.63;24.00;;;;;;;;;;5055865;28;20060;-80
2022/05/02 06:04:15;;;;;;;36.58;20.88;;;;;;;;;;5055454;28;20096;-80
2022/05/02 06:06:43;;;;;;;30.85;18.10;;;;;;;;;;5054467;28;20041;-80
2022/05/02 06:09:11;;;;;;;30.02;18.70;;;;;;;;;;5058138;28;20052;-80
2022/05/02 06:11:41;;;;;;;30.55;18.45;;;;;;;;;;5057686;28;20045;-79
2022/05/02 06:14:08;;;;;;;32.65;19.10;;;;;;;;;;5055077;28;20048;-79
2022/05/02 06:19:26;;;;;;;31.05;18.38;;;;;;;;;;5057179;28;20151;-80
2022/05/02 06:21:56;;;;;;;29.42;17.58;;;;;;;;;;5057261;28;20135;-80
2022/05/02 06:24:26;;;;;;;38.38;21.40;;;;;;;;;;5057253;28;20079;-79
2022/05/02 06:26:55;;;;;;;;;;;;;;;;;;5057111;28;20103;-80
2022/05/02 06:29:23;;;;;;;38.42;21.48;;;;;;;;;;5046541;28;20011;-79
2022/05/02 06:31:54;;;;;;;39.78;23.20;;;;;;;;;;5047626;28;20091;-80
2022/05/02 06:34:23;;;;;;;;;;;;;;;;;;5047442;28;20110;-80
2022/05/02 06:37:00;;;;;;;36.28;22.40;;;;;;;;;;5045359;28;19921;-80
2022/05/02 06:39:45;;;;;;;34.88;21.70;;;;;;;;;;5045530;28;20106;-80
2022/05/02 06:42:25;;;;;;;38.97;22.58;;;;;;;;;;5043839;28;20049;-79
2022/05/02 06:45:04;;;;;;;36.83;22.30;;;;;;;;;;5044189;28;20136;-78
2022/05/02 06:47:43;;;;;;;34.95;21.60;;;;;;;;;;5049125;28;20048;-78
2022/05/02 06:50:12;;;;;;;37.30;22.23;;;;;;;;;;5054916;28;20099;-79
2022/05/02 06:52:47;;;;;;;40.22;23.15;;;;;;;;;;5035429;28;20045;-78
2022/05/02 06:55:23;;;;;;;39.47;24.27;;;;;;;;;;5035137;28;20451;-78
2022/05/02 06:58:03;;;;;;;37.92;23.92;;;;;;;;;;5035456;28;20045;-78
2022/05/02 07:00:36;;;;;;;39.50;24.00;;;;;;;;;;5038611;28;20045;-78
2022/05/02 07:03:21;;;;;;;44.13;25.15;;;;;;;;;;5045051;28;20085;-78
2022/05/02 07:06:05;;;;;;;42.53;24.38;;;;;;;;;;5038787;28;20045;-79
2022/05/02 07:08:43;;;;;;;38.15;23.33;;;;;;;;;;5042312;28;20049;-79
2022/05/02 07:11:16;;;;;;;38.47;23.25;;;;;;;;;;5042117;28;20124;-79
2022/05/02 07:13:57;;;;;;;36.35;22.25;;;;;;;;;;5044024;28;20068;-79
2022/05/02 07:16:25;;;;;;;31.80;20.40;;;;;;;;;;5042301;28;20041;-79
2022/05/02 07:19:08;;;;;;;34.75;21.90;;;;;;;;;;5044854;28;20045;-79
2022/05/02 07:21:40;;;;;;;35.55;22.20;;;;;;;;;;5044964;28;20061;-79
2022/05/02 07:24:16;;;;;;;36.58;23.65;;;;;;;;;;5045455;28;20060;-79
2022/05/02 07:26:51;;;;;;;39.30;22.08;;;;;;;;;;5036478;28;20099;-79
2022/05/02 07:29:19;;;;;;;36.92;23.50;;;;;;;;;;5041124;28;20096;-79
2022/05/02 07:31:47;;;;;;;35.70;23.10;;;;;;;;;;5035546;28;20049;-80
2022/05/02 07:34:15;;;;;;;34.97;22.17;;;;;;;;;;5033588;28;20049;-79
2022/05/02 07:36:44;;;;;;;35.17;21.88;;;;;;;;;;5034095;28;20080;-79
2022/05/02 07:39:15;;;;;;;36.92;21.65;;;;;;;;;;5033931;28;20115;-80
2022/05/02 07:41:44;;;;;;;33.03;21.17;;;;;;;;;;5034544;28;20583;-78
2022/05/02 07:44:13;;;;;;;35.67;22.83;;;;;;;;;;5035043;28;20052;-80
2022/05/02 07:46:42;;;;;;;33.42;21.15;;;;;;;;;;5036751;28;20092;-80
2022/05/02 07:49:11;;;;;;;39.47;22.15;;;;;;;;;;5038143;28;20048;-79
2022/05/02 07:51:42;;;;;;;36.33;21.88;;;;;;;;;;5036589;28;20459;-77
2022/05/02 07:54:17;;;;;;;37.00;22.55;;;;;;;;;;5037047;28;20045;-78
2022/05/02 07:56:48;;;;;;;32.70;19.85;;;;;;;;;;5034796;28;20057;-78
2022/05/02 07:59:17;;;;;;;35.15;21.35;;;;;;;;;;5032868;28;20045;-77
2022/05/02 08:01:46;;;;;;;34.63;19.48;;;;;;;;;;5033248;28;20071;-79
2022/05/02 08:04:14;;;;;;;36.25;21.58;;;;;;;;;;5034694;28;20523;-79
2022/05/02 08:07:03;;;;;;;36.20;22.75;;;;;;;;;;5034370;28;20088;-79
2022/05/02 08:10:13;;;;;;;35.00;22.55;;;;;;;;;;5034022;28;20050;-80
2022/05/02 08:12:41;;;;;;;42.85;25.60;;;;;;;;;;5053618;28;20050;-79
2022/05/02 08:15:15;;;;;;;36.72;20.60;;;;;;;;;;5040014;28;20079;-79
2022/05/02 08:17:56;;;;;;;32.88;21.42;;;;;;;;;;5033267;28;20049;-79
2022/05/02 08:20:29;;;;;;;33.80;20.23;;;;;;;;;;5032810;28;20046;-79
2022/05/02 08:29:01;;;;;;;31.55;18.50;;;;;;;;;;4993395;28;19922;-77
2022/05/02 08:31:46;;;;;;;31.25;19.13;;;;;;;;;;5033055;28;20057;-78
2022/05/02 08:34:21;;;;;;;32.28;20.42;;;;;;;;;;5032375;28;20353;-78
2022/05/02 08:36:56;;;;;;;28.90;19.13;;;;;;;;;;5032464;28;20663;-78
2022/05/02 08:39:37;;;;;;;29.52;18.90;;;;;;;;;;5032978;28;20500;-78
2022/05/02 08:42:44;;;;;;;28.65;18.88;;;;;;;;;;5033270;28;20049;-78
2022/05/02 08:45:40;;;;;;;29.35;18.33;;;;;;;;;;5033372;28;20060;-79
2022/05/02 08:49:32;;;;;;;28.05;18.75;;;;;;;;;;5034441;28;20057;-79
2022/05/02 08:52:05;;;;;;;29.02;18.35;;;;;;;;;;5038824;28;20045;-79
2022/05/02 08:55:20;;;;;;;27.77;18.73;;;;;;;;;;5040952;28;20488;-79
2022/05/02 08:58:26;;;;;;;29.17;18.50;;;;;;;;;;5017210;28;20057;-78
2022/05/02 09:01:07;;;;;;;26.10;17.55;;;;;;;;;;5044365;28;20045;-78
2022/05/02 09:04:05;;;;;;;27.88;17.08;;;;;;;;;;5045157;28;20114;-79
2022/05/02 09:07:08;;;;;;;27.02;16.70;;;;;;;;;;5044063;28;20046;-78
2022/05/02 09:09:52;;;;;;;32.15;22.60;;;;;;;;;;5037911;28;20136;-78
2022/05/02 09:12:43;;;;;;;28.33;17.88;;;;;;;;;;5038721;28;20050;-78
2022/05/02 09:15:20;;;;;;;;;;;;;;;;;;5039086;28;20227;-79
2022/05/02 09:18:13;;;;;;;27.85;17.92;;;;;;;;;;5038037;28;19975;-79
2022/05/02 09:20:53;;;;;;;28.27;17.50;;;;;;;;;;5023243;28;20041;-79
2022/05/02 09:24:10;;;;;;;26.33;18.80;;;;;;;;;;5040222;28;20046;-78
2022/05/02 09:27:12;;;;;;;27.27;17.42;;;;;;;;;;4977035;28;20082;-78
2022/05/02 09:30:19;;;;;;;26.65;17.98;;;;;;;;;;4956860;29;20142;-79
2022/05/02 09:32:58;;;;;;;27.85;19.25;;;;;;;;;;5015407;28;20054;-78
2022/05/02 09:35:34;;;;;;;27.85;18.55;;;;;;;;;;5019313;28;20045;-78
2022/05/02 09:38:18;;;;;;;25.25;17.42;;;;;;;;;;5017041;28;20061;-80
2022/05/02 09:40:46;;;;;;;27.88;18.52;;;;;;;;;;5014720;28;20081;-78
2022/05/02 09:49:33;;;;;;;27.92;19.10;;;;;;;;;;5013361;28;20047;-78
2022/05/02 09:49:53;;;;;;;23.23;16.77;;;;;;;;;;5042728;22;20048;-62
2022/05/02 09:52:29;;;;;;;22.60;17.35;;;;;;;;;;5010015;28;20068;-62
2022/05/02 09:58:34;;;;;;;20.13;14.68;;;;;;;;;;5001284;28;20107;-62
2022/05/02 10:01:07;;;;;;;25.60;18.10;;;;;;;;;;5013284;28;20052;-63
2022/05/02 10:03:38;;;;;;;22.60;15.90;;;;;;;;;;5013357;28;20112;-64
2022/05/02 10:06:10;;;;;;;23.45;17.15;;;;;;;;;;5013684;28;20485;-62
2022/05/02 10:08:57;;;;;;;21.20;15.18;;;;;;;;;;5013550;28;20049;-62
2022/05/02 10:11:53;;;;;;;19.20;15.15;;;;;;;;;;5013123;28;20517;-62
2022/05/02 10:14:39;;;;;;;24.52;18.40;;;;;;;;;;5013193;28;20049;-65
2022/05/02 10:17:08;;;;;;;24.02;17.50;;;;;;;;;;5012962;28;20065;-62
2022/05/02 10:20:04;;;;;;;22.35;16.55;;;;;;;;;;5012693;28;20049;-62
2022/05/02 10:22:44;;;;;;;26.55;18.92;;;;;;;;;;5013617;28;20147;-63
2022/05/02 10:25:15;;;;;;;23.23;16.70;;;;;;;;;;5012767;28;20042;-63
2022/05/02 10:28:09;;;;;;;21.85;16.15;;;;;;;;;;5013959;28;20089;-67
2022/05/02 10:30:53;;;;;;;22.45;15.75;;;;;;;;;;5013526;28;20053;-63
2022/05/02 10:33:29;;;;;;;22.90;16.52;;;;;;;;;;5012801;28;20053;-63
2022/05/02 10:36:00;;;;;;;25.85;18.83;;;;;;;;;;5012795;28;20184;-63
2022/05/02 10:38:30;;;;;;;;;;;;;;;;;;5013246;28;20081;-63
2022/05/02 10:41:02;;;;;;;;;;;;;;;;;;5013338;28;20008;-63
2022/05/02 10:43:36;;;;;;;23.75;17.27;;;;;;;;;;5012660;28;20012;-63
2022/05/02 10:46:04;;;;;;;20.65;16.40;;;;;;;;;;5012681;28;20480;-63
2022/05/02 10:48:45;;;;;;;24.23;17.77;;;;;;;;;;5012765;28;20121;-65
2022/05/02 10:51:14;;;;;;;21.65;15.75;;;;;;;;;;5012521;28;20269;-63
2022/05/02 10:54:10;;;;;;;24.40;18.15;;;;;;;;;;5012556;28;20089;-62
2022/05/02 10:56:43;;;;;;;28.90;20.90;;;;;;;;;;5012520;28;20104;-63
2022/05/02 10:59:14;;;;;;;23.13;16.95;;;;;;;;;;5012795;28;20042;-63
2022/05/02 11:02:18;;;;;;;25.20;16.92;;;;;;;;;;5012030;28;20050;-65
2022/05/02 11:05:02;;;;;;;26.63;16.73;;;;;;;;;;5011669;28;20065;-64
2022/05/02 11:07:36;;;;;;;23.58;16.42;;;;;;;;;;5012694;28;20427;-64
2022/05/02 11:10:07;;;;;;;20.83;15.77;;;;;;;;;;5012540;28;20046;-63
2022/05/02 11:12:40;;;;;;;19.65;14.32;;;;;;;;;;5012289;28;20053;-65
2022/05/02 11:15:09;;;;;;;18.52;13.55;;;;;;;;;;5011913;28;20049;-63
2022/05/02 11:17:56;;;;;;;22.27;15.30;;;;;;;;;;5012114;28;20054;-63
2022/05/02 11:20:46;;;;;;;20.83;15.30;;;;;;;;;;5012298;28;20176;-65
2022/05/02 11:23:46;;;;;;;19.92;14.77;;;;;;;;;;5011713;28;20533;-63
2022/05/02 11:26:27;;;;;;;18.77;14.88;;;;;;;;;;5011664;28;20054;-64
2022/05/02 11:29:13;;;;;;;20.08;16.10;;;;;;;;;;5012347;28;20050;-64
2022/05/02 11:31:48;;;;;;;20.35;14.18;;;;;;;;;;5011550;28;20054;-64
2022/05/02 11:34:35;;;;;;;19.38;14.35;;;;;;;;;;5012147;28;20050;-64
2022/05/02 11:37:06;;;;;;;18.67;13.75;;;;;;;;;;5012015;28;20098;-64
2022/05/02 11:39:38;;;;;;;19.65;15.20;;;;;;;;;;5011731;28;20096;-64
2022/05/02 11:42:10;;;;;;;17.73;14.25;;;;;;;;;;5011949;28;20057;-64
2022/05/02 11:44:48;;;;;;;19.67;14.77;;;;;;;;;;5010282;28;20042;-64
2022/05/02 11:47:19;;;;;;;17.80;12.95;;;;;;;;;;5011260;28;20046;-64
2022/05/02 11:50:04;;;;;;;18.27;13.15;;;;;;;;;;5011702;28;20672;-64
2022/05/02 11:52:33;;;;;;;16.85;13.05;;;;;;;;;;5011050;28;20053;-63
2022/05/02 11:55:01;;;;;;;17.38;14.30;;;;;;;;;;5011454;28;20046;-63
2022/05/02 11:57:36;;;;;;;18.58;15.45;;;;;;;;;;5011298;28;20046;-63
2022/05/02 12:00:07;;;;;;;21.00;15.07;;;;;;;;;;5011182;28;20141;-63
2022/05/02 12:02:55;;;;;;;18.25;14.23;;;;;;;;;;5011399;28;20142;-64
2022/05/02 12:05:25;;;;;;;19.00;14.68;;;;;;;;;;5011464;28;20049;-63
2022/05/02 12:07:53;;;;;;;18.08;14.65;;;;;;;;;;5011294;28;20050;-63
2022/05/02 12:10:21;;;;;;;18.92;13.70;;;;;;;;;;5011116;28;20469;-63
2022/05/02 12:12:53;;;;;;;18.70;14.87;;;;;;;;;;5011491;28;20418;-63
2022/05/02 12:15:20;;;;;;;18.45;14.55;;;;;;;;;;5010589;28;20842;-63
2022/05/02 12:17:55;;;;;;;17.02;13.73;;;;;;;;;;5011496;28;20053;-64
2022/05/02 12:20:27;;;;;;;20.67;14.88;;;;;;;;;;5010898;28;20056;-63
2022/05/02 12:22:56;;;;;;;16.95;13.35;;;;;;;;;;5011209;28;20423;-64
2022/05/02 12:25:28;;;;;;;17.48;14.45;;;;;;;;;;5010664;28;20124;-64
2022/05/02 12:27:58;;;;;;;19.27;14.65;;;;;;;;;;5010907;28;20057;-63
2022/05/02 12:30:28;;;;;;;18.20;14.17;;;;;;;;;;5010802;28;20054;-63
2022/05/02 12:33:00;;;;;;;17.63;14.93;;;;;;;;;;5011217;28;20790;-63
2022/05/02 12:35:35;;;;;;;16.60;13.65;;;;;;;;;;5010885;28;20046;-63
2022/05/02 12:38:15;;;;;;;18.80;15.23;;;;;;;;;;5010843;28;20049;-63
2022/05/02 12:40:42;;;;;;;19.40;14.68;;;;;;;;;;5010546;28;20046;-63
2022/05/02 12:43:15;;;;;;;18.35;14.30;;;;;;;;;;5010757;28;20055;-63
2022/05/02 12:45:47;;;;;;;17.80;14.23;;;;;;;;;;5010958;28;20525;-62
2022/05/02 12:48:22;;;;;;;16.25;12.90;;;;;;;;;;5010780;28;20057;-63
2022/05/02 12:50:51;;;;;;;17.05;13.15;;;;;;;;;;5010031;28;20049;-63
2022/05/02 12:54:09;;;;;;;18.80;13.93;;;;;;;;;;5010606;28;20549;-63
2022/05/02 12:56:10;;;;;;;18.25;14.48;;;;;;;;;;5010097;28;20100;-63
2022/05/02 13:01:25;;;;;;;19.60;14.27;;;;;;;;;;5010216;28;20065;-63
2022/05/02 13:03:57;;;;;;;16.60;13.18;;;;;;;;;;5010456;28;20069;-63
2022/05/02 13:06:25;;;;;;;16.42;12.90;;;;;;;;;;5010520;28;20132;-63
2022/05/02 13:09:07;;;;;;;13.05;11.23;;;;;;;;;;5010401;28;20049;-63
2022/05/02 13:11:38;;;;;;;14.95;11.93;;;;;;;;;;5010562;28;20049;-64
2022/05/02 13:14:07;;;;;;;14.32;11.52;;;;;;;;;;5010337;28;20385;-64
2022/05/02 13:16:42;;;;;;;16.83;13.60;;;;;;;;;;5009747;28;20139;-62
2022/05/02 13:19:09;;;;;;;16.92;13.95;;;;;;;;;;5010354;28;20054;-62
2022/05/02 13:21:37;;;;;;;16.70;13.65;;;;;;;;;;5010212;28;20585;-64
2022/05/02 13:24:07;;;;;;;16.65;13.27;;;;;;;;;;5010016;28;20053;-63
2022/05/02 13:26:54;;;;;;;;;;;;;;;;;;5012391;28;20132;-63
2022/05/02 13:29:37;;;;;;;15.80;12.40;;;;;;;;;;5014520;28;19922;-63
2022/05/02 13:32:07;;;;;;;14.55;11.75;;;;;;;;;;5014605;28;20052;-64
2022/05/02 13:34:45;;;;;;;12.98;11.40;;;;;;;;;;5013979;28;20373;-64
2022/05/02 13:37:23;;;;;;;13.27;10.50;;;;;;;;;;5014212;28;20065;-64
2022/05/02 13:40:07;;;;;;;12.65;10.45;;;;;;;;;;5014090;28;20042;-64
2022/05/02 13:42:50;;;;;;;14.70;12.25;;;;;;;;;;5014316;28;20083;-63
2022/05/02 13:45:29;;;;;;;13.88;10.05;;;;;;;;;;5013875;28;20127;-63
2022/05/02 13:48:02;;;;;;;13.85;10.48;;;;;;;;;;5013990;28;20048;-64
2022/05/02 13:50:31;;;;;;;12.70;10.35;;;;;;;;;;5013672;28;20506;-64
2022/05/02 13:53:06;;;;;;;13.90;10.20;;;;;;;;;;5013889;28;20042;-64
2022/05/02 13:55:43;;;;;;;11.80;9.57;;;;;;;;;;5013706;28;20550;-65
2022/05/02 13:58:22;;;;;;;11.05;8.93;;;;;;;;;;5013593;28;20060;-64
2022/05/02 14:01:29;;;;;;;12.60;9.23;;;;;;;;;;5013720;28;20061;-64
2022/05/02 14:04:02;;;;;;;11.00;8.60;;;;;;;;;;5013589;28;20042;-63
2022/05/02 14:06:39;;;;;;;11.32;9.55;;;;;;;;;;5013808;28;20057;-63
2022/05/02 14:09:07;;;;;;;11.00;8.25;;;;;;;;;;5013713;28;20049;-63
2022/05/02 14:11:38;;;;;;;10.85;8.25;;;;;;;;;;5013231;28;20050;-63
2022/05/02 14:14:08;;;;;;;9.80;7.30;;;;;;;;;;5013981;28;20057;-64
2022/05/02 14:16:38;;;;;;;7.97;5.80;;;;;;;;;;5013725;28;20100;-63
2022/05/02 14:19:08;;;;;;;7.13;5.00;;;;;;;;;;5013617;28;20050;-64
2022/05/02 14:21:44;;;;;;;6.65;5.22;;;;;;;;;;5013598;28;20176;-64
2022/05/02 14:24:11;;;;;;;6.63;5.20;;;;;;;;;;5013673;28;20428;-64
2022/05/02 14:26:39;;;;;;;6.47;5.00;;;;;;;;;;5013273;28;20396;-64
2022/05/02 14:29:09;;;;;;;6.95;5.72;;;;;;;;;;5013421;28;20128;-64
2022/05/02 14:31:39;;;;;;;7.30;5.78;;;;;;;;;;5012994;28;20050;-64
2022/05/02 14:34:08;;;;;;;9.57;7.50;;;;;;;;;;5013361;28;20481;-64
2022/05/02 14:36:36;;;;;;;9.43;7.07;;;;;;;;;;5012778;28;20068;-64
2022/05/02 14:39:05;;;;;;;10.93;7.13;;;;;;;;;;5012078;28;20046;-63
2022/05/02 14:41:37;;;;;;;10.50;7.57;;;;;;;;;;5012920;28;20061;-64
2022/05/02 14:44:07;;;;;;;9.43;6.75;;;;;;;;;;5013086;28;20495;-64
2022/05/02 14:46:34;;;;;;;7.68;6.32;;;;;;;;;;5002351;28;20427;-64
2022/05/02 14:49:03;;;;;;;8.90;7.15;;;;;;;;;;4993404;28;20046;-64
2022/05/02 14:51:38;;;;;;;9.90;7.78;;;;;;;;;;4993014;28;20051;-64
2022/05/02 14:54:08;;;;;;;10.82;8.30;;;;;;;;;;4993285;28;20066;-64
2022/05/02 14:56:39;;;;;;;9.73;8.00;;;;;;;;;;4993329;28;20058;-63
2022/05/02 14:59:10;;;;;;;10.80;7.70;;;;;;;;;;4993245;28;20039;-63
2022/05/02 15:01:40;;;;;;;8.10;7.30;;;;;;;;;;4993369;28;20058;-63
2022/05/02 15:04:11;;;;;;;8.77;7.80;;;;;;;;;;4993476;28;20076;-63
2022/05/02 15:06:39;;;;;;;12.88;9.48;;;;;;;;;;4992755;28;20490;-62
2022/05/02 15:10:11;;;;;;;11.05;7.95;;;;;;;;;;4992864;28;20069;-63
2022/05/02 15:12:17;;;;;;;8.38;6.88;;;;;;;;;;4992415;28;20101;-63
2022/05/02 15:15:12;;;;;;;9.02;6.30;;;;;;;;;;4992566;28;20058;-62
2022/05/02 15:17:47;;;;;;;10.75;9.10;;;;;;;;;;4988473;28;20050;-64
2022/05/02 15:20:19;;;;;;;12.95;9.75;;;;;;;;;;4992252;28;20053;-63